Time;durP1;ratioP1;P1;durP2;ratioP2;P2;SDS_P1;SDS_P2;PMS_P1;PMS_P2;Temp;Humidity;BMP_temperature;BMP_pressure;BME280_temperature;BME280_humidity;BME280_pressure;Samples;Min_cycle;Max_cycle;Signal;HPM_P1;HPM_P2
2022/08/24 00:01:15;;;;;;;13.20;8.23;;;15.00;99.90;;;;;;5004175;28;20025;-65
2022/08/24 00:03:42;;;;;;;11.30;7.88;;;15.00;99.90;;;;;;5013198;28;20064;-66
2022/08/24 00:06:10;;;;;;;15.40;8.15;;;15.00;99.90;;;;;;5015811;28;20030;-71
2022/08/24 00:08:38;;;;;;;10.93;7.55;;;15.00;99.90;;;;;;5009885;28;20064;-67
2022/08/24 00:11:04;;;;;;;12.75;8.93;;;15.00;99.90;;;;;;5020551;28;20029;-66
2022/08/24 00:13:30;;;;;;;11.35;7.97;;;14.80;99.90;;;;;;5017301;28;20057;-66
2022/08/24 00:15:55;;;;;;;11.07;7.75;;;14.80;99.90;;;;;;5006606;28;20461;-66
2022/08/24 00:18:21;;;;;;;14.25;7.93;;;14.70;99.90;;;;;;5007050;28;20029;-66
2022/08/24 00:20:47;;;;;;;13.63;8.20;;;14.80;99.90;;;;;;5007039;28;20029;-65
2022/08/24 00:23:14;;;;;;;16.67;8.55;;;14.80;99.90;;;;;;5005215;28;20034;-65
2022/08/24 00:25:39;;;;;;;11.68;7.57;;;14.70;99.90;;;;;;5008672;28;20089;-65
2022/08/24 00:28:05;;;;;;;13.02;8.55;;;14.70;99.90;;;;;;5005893;28;20049;-68
2022/08/24 00:30:32;;;;;;;14.25;8.43;;;14.60;99.90;;;;;;5005647;28;20073;-66
2022/08/24 00:32:58;;;;;;;13.45;7.70;;;14.50;99.90;;;;;;5008247;28;20053;-68
2022/08/24 00:35:25;;;;;;;14.02;8.68;;;14.50;99.90;;;;;;5007608;28;20080;-66
2022/08/24 00:37:51;;;;;;;13.77;8.23;;;14.40;99.90;;;;;;5004917;28;20115;-67
2022/08/24 00:40:24;;;;;;;11.85;7.47;;;14.30;99.90;;;;;;5007005;28;20060;-66
2022/08/24 00:42:51;;;;;;;13.00;7.50;;;14.20;99.90;;;;;;5003574;28;20033;-66
2022/08/24 00:45:18;;;;;;;11.45;7.70;;;14.30;99.90;;;;;;5007613;28;20030;-67
2022/08/24 00:47:52;;;;;;;13.35;8.07;;;14.20;99.90;;;;;;5007055;28;20044;-66
2022/08/24 00:50:36;;;;;;;11.73;7.97;;;14.30;99.90;;;;;;4998923;28;20030;-69
2022/08/24 00:53:07;;;;;;;15.02;7.88;;;14.40;99.90;;;;;;5016555;28;20090;-65
2022/08/24 00:55:46;;;;;;;11.52;7.35;;;14.40;99.90;;;;;;5024440;28;20256;-67
2022/08/24 00:58:17;;;;;;;12.10;8.02;;;14.30;99.90;;;;;;4996698;28;20038;-67
2022/08/24 01:00:47;;;;;;;11.60;7.63;;;14.30;99.90;;;;;;5004415;28;20034;-66
2022/08/24 01:03:13;;;;;;;;;;;14.30;99.90;;;;;;5008819;28;20117;-66
2022/08/24 01:05:39;;;;;;;10.23;7.55;;;14.30;99.90;;;;;;5010949;28;20004;-65
2022/08/24 01:08:09;;;;;;;11.13;7.85;;;14.20;99.90;;;;;;5007128;28;20060;-65
2022/08/24 01:10:40;;;;;;;14.02;8.05;;;14.20;99.90;;;;;;5014730;28;20033;-66
2022/08/24 01:13:08;;;;;;;11.48;7.70;;;14.20;99.90;;;;;;5024967;28;20038;-65
2022/08/24 01:15:38;;;;;;;11.10;7.22;;;14.10;99.90;;;;;;5007414;28;20034;-65
2022/08/24 01:21:09;;;;;;;10.45;7.40;;;14.10;99.90;;;;;;5017650;28;20033;-65
2022/08/24 01:23:42;;;;;;;10.38;7.15;;;14.10;99.90;;;;;;4998606;28;20038;-65
2022/08/24 01:26:12;;;;;;;12.90;6.95;;;14.10;99.90;;;;;;5006642;28;20037;-65
2022/08/24 01:28:41;;;;;;;10.82;7.43;;;14.10;99.90;;;;;;5005967;28;20077;-67
2022/08/24 01:31:07;;;;;;;16.27;6.93;;;14.10;99.90;;;;;;5007412;28;20030;-67
2022/08/24 01:33:33;;;;;;;16.85;6.97;;;14.10;99.90;;;;;;5008244;28;20054;-68
2022/08/24 01:36:10;;;;;;;11.18;7.28;;;14.10;99.90;;;;;;5009953;28;20026;-65
2022/08/24 01:38:36;;;;;;;12.40;6.82;;;14.10;99.90;;;;;;5014842;28;20030;-68
2022/08/24 01:41:03;;;;;;;11.45;7.30;;;14.20;99.90;;;;;;5018630;28;20500;-66
2022/08/24 01:43:29;;;;;;;12.13;7.38;;;14.20;99.90;;;;;;5011337;28;20034;-67
2022/08/24 01:45:54;;;;;;;10.88;7.25;;;14.10;99.90;;;;;;5010324;28;20037;-67
2022/08/24 01:48:21;;;;;;;10.98;7.20;;;14.10;99.90;;;;;;5010746;28;20443;-65
2022/08/24 01:50:47;;;;;;;10.50;6.72;;;14.10;99.90;;;;;;5021453;28;20028;-67
2022/08/24 01:53:13;;;;;;;10.75;6.97;;;14.10;99.90;;;;;;5027908;28;20691;-71
2022/08/24 01:55:39;;;;;;;10.68;7.07;;;14.10;99.90;;;;;;5008371;28;20099;-66
2022/08/24 01:58:05;;;;;;;9.95;6.97;;;14.10;99.90;;;;;;5009448;28;20034;-66
2022/08/24 02:00:32;;;;;;;11.90;7.70;;;14.10;99.90;;;;;;5011314;28;20029;-66
2022/08/24 02:02:58;;;;;;;11.73;7.80;;;14.00;99.90;;;;;;5018173;28;20079;-66
2022/08/24 02:05:24;;;;;;;10.45;7.18;;;13.90;99.90;;;;;;5008794;28;20034;-66
2022/08/24 02:07:51;;;;;;;10.73;7.82;;;13.80;99.90;;;;;;5016998;28;20030;-66
2022/08/24 02:10:18;;;;;;;14.52;7.60;;;13.80;99.90;;;;;;5009305;28;20041;-67
2022/08/24 02:12:56;;;;;;;10.45;7.28;;;13.70;99.90;;;;;;5010675;28;20026;-67
2022/08/24 02:15:27;;;;;;;13.77;7.55;;;13.60;99.90;;;;;;5009004;28;20041;-68
2022/08/24 02:17:53;;;;;;;9.90;7.68;;;13.60;99.90;;;;;;5014341;28;20805;-67
2022/08/24 02:20:20;;;;;;;10.90;7.80;;;13.60;99.90;;;;;;5030504;28;20396;-66
2022/08/24 02:22:50;;;;;;;12.20;7.50;;;13.70;99.90;;;;;;5016526;28;20396;-66
2022/08/24 02:25:16;;;;;;;11.50;7.75;;;13.60;99.90;;;;;;5008875;28;20067;-72
2022/08/24 02:27:43;;;;;;;9.68;7.05;;;13.50;99.90;;;;;;5010279;28;20149;-66
2022/08/24 02:30:09;;;;;;;10.15;7.65;;;13.50;99.90;;;;;;5009665;28;20404;-66
2022/08/24 02:32:34;;;;;;;14.57;8.00;;;13.50;99.90;;;;;;5013419;28;20593;-64
2022/08/24 02:35:00;;;;;;;13.15;7.60;;;13.50;99.90;;;;;;5007829;28;20040;-64
2022/08/24 02:37:26;;;;;;;10.90;7.50;;;13.50;99.90;;;;;;5006001;28;20150;-68
2022/08/24 02:39:51;;;;;;;10.65;7.53;;;13.50;99.90;;;;;;5011666;28;20030;-65
2022/08/24 02:42:17;;;;;;;14.65;6.88;;;13.50;99.90;;;;;;5009920;28;20100;-72
2022/08/24 02:44:43;;;;;;;10.90;6.82;;;13.40;99.90;;;;;;5019108;28;20034;-67
2022/08/24 02:47:09;;;;;;;14.15;7.18;;;13.40;99.90;;;;;;4992126;28;20482;-66
2022/08/24 02:49:35;;;;;;;14.20;6.93;;;13.50;99.90;;;;;;5007912;28;20037;-66
2022/08/24 02:52:02;;;;;;;10.25;7.03;;;13.50;99.90;;;;;;5006464;28;20373;-67
2022/08/24 02:54:28;;;;;;;10.32;6.72;;;13.50;99.90;;;;;;5010231;28;20018;-64
2022/08/24 02:56:54;;;;;;;11.77;6.70;;;13.40;99.90;;;;;;4994422;28;20033;-66
2022/08/24 02:59:21;;;;;;;8.85;6.68;;;13.40;99.90;;;;;;4976449;28;20036;-65
2022/08/24 03:01:47;;;;;;;10.73;6.65;;;13.40;99.90;;;;;;5007393;28;20104;-67
2022/08/24 03:04:13;;;;;;;11.48;7.70;;;13.40;99.90;;;;;;5010186;28;20199;-68
2022/08/24 03:06:39;;;;;;;14.27;7.28;;;13.30;99.90;;;;;;5009454;28;20136;-69
2022/08/24 03:09:06;;;;;;;13.23;7.40;;;13.30;99.90;;;;;;5009746;28;20025;-68
2022/08/24 03:11:31;;;;;;;10.75;7.25;;;13.30;99.90;;;;;;5004548;28;20026;-67
2022/08/24 03:13:58;;;;;;;13.80;6.60;;;13.30;99.90;;;;;;5005671;28;20040;-66
2022/08/24 03:16:24;;;;;;;10.25;7.00;;;13.20;99.90;;;;;;5007326;28;20048;-70
2022/08/24 03:18:50;;;;;;;10.07;7.32;;;13.20;99.90;;;;;;5009054;28;20029;-68
2022/08/24 03:21:16;;;;;;;11.77;7.40;;;13.20;99.90;;;;;;5008447;28;20395;-70
2022/08/24 03:23:42;;;;;;;10.68;7.03;;;13.30;99.90;;;;;;5002205;28;20041;-70
2022/08/24 03:26:08;;;;;;;10.73;7.20;;;13.20;99.90;;;;;;5004363;28;20040;-70
2022/08/24 03:28:34;;;;;;;12.75;6.90;;;13.20;99.90;;;;;;4991912;28;20034;-68
2022/08/24 03:31:00;;;;;;;9.75;7.03;;;13.10;99.90;;;;;;5009554;28;20495;-69
2022/08/24 03:33:26;;;;;;;10.95;7.18;;;13.10;99.90;;;;;;5007682;28;20083;-71
2022/08/24 03:35:52;;;;;;;12.90;7.60;;;13.00;99.90;;;;;;5010427;28;20125;-69
2022/08/24 03:38:20;;;;;;;13.05;8.00;;;13.00;99.90;;;;;;5010015;28;20033;-71
2022/08/24 03:40:45;;;;;;;15.43;8.07;;;12.90;99.90;;;;;;5010180;28;20037;-69
2022/08/24 03:43:44;;;;;;;11.45;7.60;;;12.90;99.90;;;;;;5010455;28;20026;-69
2022/08/24 03:46:01;;;;;;;11.38;7.93;;;12.80;99.90;;;;;;5009090;28;20122;-69
2022/08/24 03:48:30;;;;;;;12.05;7.43;;;12.80;99.90;;;;;;5009311;28;20026;-69
2022/08/24 03:50:56;;;;;;;10.95;7.40;;;12.90;99.90;;;;;;5008895;28;20460;-68
2022/08/24 03:53:22;;;;;;;15.70;7.88;;;12.90;99.90;;;;;;5009040;28;20038;-72
2022/08/24 03:55:48;;;;;;;15.05;7.57;;;12.90;99.90;;;;;;5009893;28;20034;-68
2022/08/24 03:58:14;;;;;;;12.07;7.32;;;12.90;99.90;;;;;;5010110;28;20030;-68
2022/08/24 04:00:41;;;;;;;10.88;7.68;;;12.90;99.90;;;;;;5009167;28;20149;-67
2022/08/24 04:03:11;;;;;;;10.02;6.95;;;12.90;99.90;;;;;;5009922;28;20034;-70
2022/08/24 04:05:38;;;;;;;11.83;7.37;;;12.90;99.90;;;;;;5008160;28;20087;-70
2022/08/24 04:08:04;;;;;;;10.73;7.18;;;12.90;99.90;;;;;;5009723;28;20532;-67
2022/08/24 04:10:31;;;;;;;11.45;7.78;;;12.90;99.90;;;;;;5008360;28;20071;-67
2022/08/24 04:12:57;;;;;;;10.35;7.50;;;12.80;99.90;;;;;;5009844;28;20018;-71
2022/08/24 04:15:23;;;;;;;11.43;7.65;;;12.80;99.90;;;;;;5007813;28;20034;-71
2022/08/24 04:17:49;;;;;;;12.20;7.88;;;12.90;99.90;;;;;;5009653;28;20105;-68
2022/08/24 04:20:15;;;;;;;12.15;7.38;;;12.80;99.90;;;;;;5009770;28;20113;-69
2022/08/24 04:22:41;;;;;;;10.55;7.05;;;12.60;99.90;;;;;;5007595;28;20022;-70
2022/08/24 04:25:08;;;;;;;12.77;7.60;;;12.60;99.90;;;;;;5009356;28;20189;-69
2022/08/24 04:27:33;;;;;;;12.18;7.38;;;12.50;99.90;;;;;;5008672;28;20112;-68
2022/08/24 04:29:59;;;;;;;11.52;7.95;;;12.50;99.90;;;;;;5008108;28;20160;-68
2022/08/24 04:32:25;;;;;;;11.45;7.60;;;12.40;99.90;;;;;;5005839;28;20100;-71
2022/08/24 04:34:50;;;;;;;17.13;8.15;;;12.40;99.90;;;;;;4991603;28;20037;-69
2022/08/24 04:37:16;;;;;;;12.00;7.30;;;12.40;99.90;;;;;;5004526;28;20026;-70
2022/08/24 04:39:42;;;;;;;14.65;7.82;;;12.40;99.90;;;;;;5005299;28;20037;-69
2022/08/24 04:42:09;;;;;;;12.93;7.80;;;12.40;99.90;;;;;;5005374;28;20026;-68
2022/08/24 04:44:35;;;;;;;13.75;8.77;;;12.30;99.90;;;;;;5006554;28;20037;-68
2022/08/24 04:47:00;;;;;;;18.13;9.38;;;12.30;99.90;;;;;;5009015;28;20029;-67
2022/08/24 04:49:26;;;;;;;14.85;9.05;;;12.20;99.90;;;;;;5005464;28;20038;-69
2022/08/24 04:51:52;;;;;;;17.23;9.25;;;12.20;99.90;;;;;;5006947;28;20112;-70
2022/08/24 04:54:18;;;;;;;15.18;8.32;;;12.30;99.90;;;;;;5005971;28;20038;-67
2022/08/24 04:56:43;;;;;;;12.70;7.88;;;12.40;99.90;;;;;;5006843;28;20033;-68
2022/08/24 04:59:09;;;;;;;13.82;8.35;;;12.50;99.90;;;;;;5007060;28;20033;-68
2022/08/24 05:01:35;;;;;;;14.15;8.65;;;12.60;99.90;;;;;;5006478;28;20026;-68
2022/08/24 05:04:02;;;;;;;17.58;8.45;;;12.60;99.90;;;;;;5009121;28;20117;-69
2022/08/24 05:06:31;;;;;;;14.50;8.43;;;12.70;99.90;;;;;;5005456;28;20041;-70
2022/08/24 05:08:57;;;;;;;15.35;8.77;;;12.70;99.90;;;;;;5005678;28;20092;-70
2022/08/24 05:11:23;;;;;;;16.02;8.98;;;12.70;99.90;;;;;;5015405;28;20041;-72
2022/08/24 05:13:54;;;;;;;12.70;8.68;;;12.70;99.90;;;;;;5008976;28;20030;-68
2022/08/24 05:16:21;;;;;;;13.55;8.07;;;12.70;99.90;;;;;;4991664;28;20061;-68
2022/08/24 05:18:47;;;;;;;16.13;9.45;;;12.80;99.90;;;;;;5012062;28;20025;-71
2022/08/24 05:21:15;;;;;;;12.07;7.85;;;12.80;99.90;;;;;;5013068;28;20040;-69
2022/08/24 05:23:41;;;;;;;14.05;8.18;;;12.90;99.90;;;;;;5011321;28;20097;-70
2022/08/24 05:26:11;;;;;;;11.73;7.78;;;13.10;99.90;;;;;;5012900;28;20432;-70
2022/08/24 05:28:38;;;;;;;13.25;7.95;;;13.30;99.90;;;;;;5012122;28;20045;-69
2022/08/24 05:31:24;;;;;;;14.27;7.65;;;13.40;99.90;;;;;;5012892;28;20109;-69
2022/08/24 05:33:50;;;;;;;16.52;9.07;;;13.50;99.90;;;;;;5012684;28;20073;-69
2022/08/24 05:36:23;;;;;;;19.20;8.25;;;13.60;99.90;;;;;;5013038;28;20037;-69
2022/08/24 05:38:50;;;;;;;12.93;7.78;;;13.60;99.90;;;;;;5010978;28;20515;-68
2022/08/24 05:41:17;;;;;;;11.27;7.72;;;13.60;99.90;;;;;;5012333;28;20041;-71
2022/08/24 05:43:43;;;;;;;11.23;7.43;;;13.70;99.90;;;;;;5011692;28;20257;-69
2022/08/24 05:46:08;;;;;;;10.93;7.22;;;13.90;99.90;;;;;;5012499;28;20038;-70
2022/08/24 05:48:36;;;;;;;12.52;7.57;;;14.00;99.90;;;;;;5011828;28;20041;-69
2022/08/24 05:51:02;;;;;;;12.65;6.97;;;14.20;99.90;;;;;;5012114;28;20036;-69
2022/08/24 05:53:27;;;;;;;13.25;7.47;;;14.40;99.90;;;;;;5010547;28;20048;-72
2022/08/24 05:55:53;;;;;;;13.77;7.40;;;14.60;99.90;;;;;;5011874;28;20038;-69
2022/08/24 05:58:19;;;;;;;14.52;7.90;;;14.90;99.90;;;;;;5012444;28;20544;-69
2022/08/24 06:00:45;;;;;;;14.45;7.15;;;15.20;99.90;;;;;;5011435;28;20504;-68
2022/08/24 06:03:13;;;;;;;13.80;7.35;;;15.40;99.90;;;;;;5010119;28;20403;-69
2022/08/24 06:05:43;;;;;;;12.93;8.30;;;15.50;99.90;;;;;;5006774;28;20460;-69
2022/08/24 06:08:09;;;;;;;12.57;7.60;;;15.70;99.90;;;;;;5027057;28;20029;-69
2022/08/24 06:10:43;;;;;;;11.07;7.88;;;15.80;99.90;;;;;;5008289;28;20030;-67
2022/08/24 06:13:10;;;;;;;12.38;7.78;;;15.90;99.90;;;;;;5014955;28;20021;-64
2022/08/24 06:15:37;;;;;;;12.63;7.30;;;15.70;99.90;;;;;;5023617;28;20026;-68
2022/08/24 06:18:04;;;;;;;12.95;7.07;;;15.70;99.90;;;;;;5011862;28;20045;-66
2022/08/24 06:20:30;;;;;;;10.32;7.03;;;15.90;99.90;;;;;;5009074;28;20428;-73
2022/08/24 06:22:55;;;;;;;10.00;6.95;;;16.00;99.90;;;;;;5011799;28;20040;-68
2022/08/24 06:28:05;;;;;;;11.65;6.93;;;16.30;99.90;;;;;;5011604;28;20044;-66
2022/08/24 06:30:31;;;;;;;11.50;6.80;;;16.50;99.90;;;;;;4993220;28;20033;-72
2022/08/24 06:33:00;;;;;;;10.50;6.93;;;16.80;99.90;;;;;;5011251;28;20064;-68
2022/08/24 06:35:26;;;;;;;9.30;6.10;;;17.10;99.90;;;;;;5010752;28;20030;-68
2022/08/24 06:37:52;;;;;;;9.82;6.85;;;17.40;99.90;;;;;;5010974;28;20509;-69
2022/08/24 06:40:20;;;;;;;11.05;6.47;;;17.70;99.90;;;;;;5011488;28;20466;-68
2022/08/24 06:42:47;;;;;;;11.20;6.72;;;17.90;99.90;;;;;;5010749;28;20029;-68
2022/08/24 06:45:13;;;;;;;10.23;5.97;;;18.10;99.90;;;;;;5010726;28;20802;-65
2022/08/24 06:47:40;;;;;;;9.27;6.28;;;18.30;99.90;;;;;;5007979;28;20040;-67
2022/08/24 06:50:07;;;;;;;11.15;6.47;;;18.50;99.90;;;;;;5016427;28;20067;-69
2022/08/24 06:52:34;;;;;;;8.98;6.20;;;18.60;99.90;;;;;;5014473;28;20033;-70
2022/08/24 06:55:00;;;;;;;9.10;6.65;;;18.80;99.90;;;;;;5001260;28;20041;-67
2022/08/24 06:57:25;;;;;;;8.65;5.85;;;18.90;99.90;;;;;;5008739;28;20038;-68
2022/08/24 06:59:53;;;;;;;8.40;6.03;;;19.20;99.90;;;;;;5010765;28;20119;-68
2022/08/24 07:02:19;;;;;;;10.10;5.57;;;19.40;99.90;;;;;;5008801;28;20056;-66
2022/08/24 07:04:46;;;;;;;11.13;6.38;;;19.50;99.90;;;;;;5008217;28;20030;-68
2022/08/24 07:07:12;;;;;;;10.57;5.63;;;19.70;99.90;;;;;;5009994;28;20084;-69
2022/08/24 07:09:38;;;;;;;11.73;6.00;;;19.80;99.90;;;;;;5007872;28;20046;-69
2022/08/24 07:12:03;;;;;;;10.07;5.80;;;19.90;99.90;;;;;;5009890;28;20038;-69
2022/08/24 07:14:30;;;;;;;11.30;6.47;;;19.90;99.90;;;;;;5008778;28;20083;-72
2022/08/24 07:16:56;;;;;;;13.45;6.13;;;20.00;99.90;;;;;;5007075;28;20038;-75
2022/08/24 07:19:22;;;;;;;9.90;5.70;;;20.30;99.90;;;;;;4991804;28;20036;-72
2022/08/24 07:21:47;;;;;;;8.88;5.60;;;20.50;99.90;;;;;;5007229;28;20080;-69
2022/08/24 07:24:13;;;;;;;11.18;5.45;;;20.70;99.90;;;;;;5004300;28;20113;-69
2022/08/24 07:26:40;;;;;;;7.47;5.38;;;20.80;99.90;;;;;;5005620;28;20495;-68
2022/08/24 07:29:10;;;;;;;9.23;5.22;;;21.00;99.90;;;;;;5008083;28;20030;-68
2022/08/24 07:31:38;;;;;;;10.32;6.18;;;21.20;99.90;;;;;;4990489;28;20077;-70
2022/08/24 07:34:06;;;;;;;6.68;4.88;;;21.30;99.90;;;;;;5008103;28;20045;-67
2022/08/24 07:36:32;;;;;;;9.07;5.55;;;21.30;99.90;;;;;;5009706;28;20026;-74
2022/08/24 07:38:58;;;;;;;8.95;5.50;;;21.50;99.90;;;;;;4992374;28;20045;-70
2022/08/24 07:41:25;;;;;;;10.45;5.55;;;21.50;99.90;;;;;;5011876;28;20018;-71
2022/08/24 07:43:52;;;;;;;10.35;5.10;;;21.60;99.90;;;;;;5002589;28;21002;-67
2022/08/24 07:46:18;;;;;;;6.53;5.13;;;21.70;99.90;;;;;;5010501;28;20034;-73
2022/08/24 07:48:44;;;;;;;7.57;5.50;;;21.90;99.90;;;;;;5007476;28;20036;-69
2022/08/24 07:51:12;;;;;;;7.95;4.90;;;22.00;99.90;;;;;;5008931;28;20033;-68
2022/08/24 07:53:38;;;;;;;10.75;4.95;;;22.10;99.90;;;;;;5006932;28;20029;-73
2022/08/24 07:56:04;;;;;;;7.50;4.93;;;22.30;99.90;;;;;;4990735;28;20052;-69
2022/08/24 07:58:30;;;;;;;10.13;4.78;;;22.50;99.90;;;;;;5003668;28;20030;-65
2022/08/24 08:00:56;;;;;;;8.70;4.65;;;22.70;99.90;;;;;;5006223;28;20061;-70
2022/08/24 08:03:25;;;;;;;10.30;4.45;;;22.80;99.90;;;;;;5006099;28;20037;-69
2022/08/24 08:06:03;;;;;;;9.63;4.50;;;23.00;99.90;;;;;;5005243;28;20018;-68
2022/08/24 08:08:29;;;;;;;7.25;4.70;;;23.20;99.90;;;;;;5003288;28;20041;-71
2022/08/24 08:10:56;;;;;;;8.18;3.72;;;23.30;99.90;;;;;;4989921;28;20026;-65
2022/08/24 08:13:21;;;;;;;9.82;4.57;;;23.20;99.90;;;;;;5000289;28;20026;-66
2022/08/24 08:15:48;;;;;;;5.72;4.18;;;23.40;99.90;;;;;;4989497;28;20038;-65
2022/08/24 08:18:14;;;;;;;8.80;4.45;;;23.60;99.90;;;;;;4987324;28;20125;-67
2022/08/24 08:20:41;;;;;;;6.97;4.47;;;23.70;99.90;;;;;;5003982;28;20065;-67
2022/08/24 08:25:57;;;;;;;5.80;4.28;;;23.90;99.90;;;;;;4959452;28;20186;-69
2022/08/24 08:28:23;;;;;;;5.70;4.00;;;23.80;99.90;;;;;;5019926;28;20502;-68
2022/08/24 08:30:51;;;;;;;7.15;3.83;;;23.90;99.90;;;;;;5028639;28;20048;-67
2022/08/24 08:33:17;;;;;;;6.40;3.22;;;23.80;99.90;;;;;;5029168;28;20059;-68
2022/08/24 08:35:43;;;;;;;8.98;3.80;;;23.90;99.90;;;;;;5028587;28;20535;-68
2022/08/24 08:38:09;;;;;;;5.95;3.92;;;24.10;99.90;;;;;;5029401;28;20079;-67
2022/08/24 08:41:07;;;;;;;8.15;4.10;;;24.10;99.90;;;;;;5008900;28;20440;-72
2022/08/24 08:43:41;;;;;;;6.15;3.65;;;24.20;99.90;;;;;;5009090;28;20204;-68
2022/08/24 08:46:14;;;;;;;5.53;3.90;;;24.20;99.90;;;;;;5009563;28;20391;-68
2022/08/24 08:48:56;;;;;;;5.82;3.63;;;24.40;99.60;;;;;;5008966;28;20113;-71
2022/08/24 08:51:47;;;;;;;7.07;3.70;;;24.40;98.80;;;;;;5009658;28;20034;-68
2022/08/24 08:54:19;;;;;;;7.50;3.80;;;24.50;99.40;;;;;;5008099;28;20440;-67
2022/08/24 08:57:00;;;;;;;9.98;3.80;;;24.60;98.20;;;;;;5008762;28;20034;-65
2022/08/24 08:59:44;;;;;;;4.97;3.70;;;24.70;98.10;;;;;;5009664;28;20030;-68
2022/08/24 09:02:28;;;;;;;5.03;3.83;;;24.80;97.40;;;;;;5009150;28;20026;-66
2022/08/24 09:05:12;;;;;;;5.90;4.32;;;24.90;97.00;;;;;;5008513;28;20030;-67
2022/08/24 09:07:54;;;;;;;5.90;4.05;;;24.80;96.90;;;;;;5008991;28;20069;-70
2022/08/24 09:10:48;;;;;;;6.53;3.95;;;24.90;97.20;;;;;;5007500;28;20455;-67
2022/08/24 09:13:31;;;;;;;5.35;4.38;;;25.10;97.70;;;;;;5009686;28;20496;-66
2022/08/24 09:16:23;;;;;;;5.70;4.22;;;25.20;96.20;;;;;;5008513;28;20044;-68
2022/08/24 09:19:09;;;;;;;9.48;4.90;;;25.10;98.20;;;;;;5008671;28;20018;-69
2022/08/24 09:21:38;;;;;;;7.30;4.13;;;25.30;97.60;;;;;;5009450;28;20108;-66
2022/08/24 09:24:12;;;;;;;6.03;3.95;;;25.50;97.30;;;;;;5007896;28;20080;-68
2022/08/24 09:27:14;;;;;;;5.45;4.00;;;25.70;96.20;;;;;;5008764;28;20575;-71
2022/08/24 09:30:37;;;;;;;4.18;3.55;;;25.80;96.10;;;;;;5004642;28;20534;-70
2022/08/24 09:33:10;;;;;;;5.90;4.03;;;26.30;95.60;;;;;;4945164;28;20083;-67
2022/08/24 09:35:50;;;;;;;8.30;3.95;;;26.30;94.20;;;;;;4932122;29;20023;-68
2022/08/24 09:38:15;;;;;;;;;;;26.20;93.50;;;;;;4971595;28;20120;-67
2022/08/24 09:41:12;;;;;;;3.63;2.78;;;26.30;92.40;;;;;;4982980;28;19964;-74
2022/08/24 09:43:56;;;;;;;4.90;3.20;;;26.40;92.60;;;;;;4987892;28;20031;-67
2022/08/24 09:46:57;;;;;;;5.13;3.13;;;26.30;93.60;;;;;;4978985;28;20501;-69
2022/08/24 09:50:01;;;;;;;3.85;2.92;;;26.50;90.70;;;;;;4969887;28;20077;-67
2022/08/24 09:52:47;;;;;;;5.80;3.22;;;26.30;91.90;;;;;;4968307;28;20053;-70
2022/08/24 09:55:42;;;;;;;6.03;3.25;;;26.60;89.40;;;;;;4991122;28;20034;-68
2022/08/24 09:58:22;;;;;;;3.40;2.90;;;26.20;88.60;;;;;;4951145;28;20049;-69
2022/08/24 10:01:21;;;;;;;4.38;3.03;;;26.20;87.40;;;;;;4990267;28;20034;-71
2022/08/24 10:04:11;;;;;;;6.28;2.83;;;26.40;86.90;;;;;;4990978;28;20148;-70
2022/08/24 10:07:22;;;;;;;3.80;2.55;;;26.60;88.60;;;;;;4991742;28;20046;-68
2022/08/24 10:10:08;;;;;;;5.97;2.95;;;26.90;88.40;;;;;;4990922;28;20039;-68
2022/08/24 10:13:11;;;;;;;3.25;2.75;;;26.90;84.50;;;;;;4989021;28;20110;-68
2022/08/24 10:15:59;;;;;;;3.20;2.70;;;27.00;84.10;;;;;;4991571;28;20066;-70
2022/08/24 10:18:56;;;;;;;11.48;2.88;;;27.20;81.20;;;;;;4991454;28;20058;-68
2022/08/24 10:21:41;;;;;;;7.63;2.80;;;27.10;84.80;;;;;;4989712;28;20531;-69
2022/08/24 10:24:32;;;;;;;5.30;3.17;;;27.00;80.30;;;;;;4990213;28;20027;-70
2022/08/24 10:27:05;;;;;;;4.85;2.92;;;26.90;82.60;;;;;;4981325;28;20039;-71
2022/08/24 10:30:08;;;;;;;3.42;2.67;;;27.00;82.40;;;;;;4980416;28;20568;-70
2022/08/24 10:32:55;;;;;;;7.63;2.72;;;27.40;84.90;;;;;;4998402;28;20515;-67
2022/08/24 10:35:37;;;;;;;4.13;2.55;;;27.60;81.20;;;;;;5018951;28;20491;-68
2022/08/24 10:41:05;;;;;;;;;;;27.80;78.40;;;;;;4991500;28;20045;-67
2022/08/24 10:43:50;;;;;;;5.53;3.17;;;27.60;79.20;;;;;;4992383;28;20352;-68
2022/08/24 10:46:48;;;;;;;4.85;2.92;;;27.60;80.90;;;;;;4996426;28;20026;-67
2022/08/24 10:49:35;;;;;;;4.15;2.75;;;27.60;78.90;;;;;;4978846;28;20046;-66
2022/08/24 10:52:22;;;;;;;4.18;2.53;;;27.30;82.30;;;;;;5003146;28;20030;-69
2022/08/24 10:54:47;;;;;;;3.75;2.85;;;27.50;77.20;;;;;;5004578;28;20072;-68
2022/08/24 10:57:30;;;;;;;6.25;3.15;;;27.20;78.20;;;;;;5008654;28;20128;-67
2022/08/24 11:00:17;;;;;;;6.15;3.30;;;27.10;79.60;;;;;;4993211;28;20104;-66
2022/08/24 11:02:45;;;;;;;6.40;3.05;;;27.30;83.10;;;;;;5001281;28;20399;-65
2022/08/24 11:05:15;;;;;;;4.57;3.00;;;27.90;81.20;;;;;;5010862;28;20122;-69
2022/08/24 11:08:01;;;;;;;4.32;3.25;;;28.00;77.60;;;;;;5009416;28;20092;-64
2022/08/24 11:10:31;;;;;;;3.47;2.88;;;27.70;80.40;;;;;;5003672;28;20099;-67
2022/08/24 11:13:13;;;;;;;;;;;27.70;80.60;;;;;;5009904;28;20030;-66
2022/08/24 11:15:54;;;;;;;5.63;3.17;;;27.50;78.10;;;;;;5009761;28;20387;-66
2022/08/24 11:18:21;;;;;;;5.43;3.20;;;27.60;80.10;;;;;;5007435;28;20468;-66
2022/08/24 11:20:49;;;;;;;8.73;3.40;;;27.70;79.20;;;;;;5007634;28;20038;-70
2022/08/24 11:23:22;;;;;;;4.22;3.30;;;27.90;78.40;;;;;;5010756;28;20026;-67
2022/08/24 11:26:00;;;;;;;6.75;3.45;;;27.90;77.70;;;;;;5010127;28;20061;-74
2022/08/24 11:28:29;;;;;;;5.32;3.53;;;28.10;77.30;;;;;;5008901;28;20030;-67
2022/08/24 11:30:55;;;;;;;5.55;3.55;;;27.90;77.80;;;;;;5008526;28;20041;-66
2022/08/24 11:33:27;;;;;;;6.20;3.75;;;28.20;80.30;;;;;;4988576;28;20390;-69
2022/08/24 11:35:53;;;;;;;4.47;3.50;;;28.40;76.80;;;;;;5005727;28;20064;-65
2022/08/24 11:38:21;;;;;;;4.72;3.50;;;28.10;80.20;;;;;;5010167;28;20042;-68
2022/08/24 11:40:58;;;;;;;5.35;3.60;;;28.30;81.30;;;;;;5010040;28;20041;-75
2022/08/24 11:43:49;;;;;;;6.10;3.38;;;28.50;80.50;;;;;;4993164;28;20476;-66
2022/08/24 11:46:30;;;;;;;5.55;3.50;;;28.20;79.40;;;;;;5001920;28;20030;-67
2022/08/24 11:49:19;;;;;;;5.75;3.63;;;28.40;84.50;;;;;;5009486;28;20050;-66
2022/08/24 11:51:48;;;;;;;7.70;3.33;;;28.50;80.80;;;;;;5010214;28;20476;-66
2022/08/24 11:54:24;;;;;;;6.80;3.58;;;28.40;80.00;;;;;;5009531;28;20052;-65
2022/08/24 11:57:14;;;;;;;5.97;3.70;;;28.90;80.70;;;;;;5009527;28;20041;-72
2022/08/24 11:59:53;;;;;;;6.35;3.20;;;29.40;80.10;;;;;;5009248;28;20025;-66
2022/08/24 12:02:37;;;;;;;5.55;3.70;;;29.30;78.50;;;;;;5010023;28;20030;-66
2022/08/24 12:05:31;;;;;;;5.18;3.30;;;28.90;77.80;;;;;;5009334;28;20514;-68
2022/08/24 12:08:09;;;;;;;4.07;3.55;;;29.10;79.00;;;;;;5008889;28;20476;-67
2022/08/24 12:10:45;;;;;;;5.55;4.28;;;28.90;80.10;;;;;;5010013;28;20026;-65
2022/08/24 12:13:30;;;;;;;4.45;3.47;;;29.10;79.20;;;;;;5009168;28;20030;-66
2022/08/24 12:16:16;;;;;;;14.55;3.90;;;28.90;79.00;;;;;;5007530;28;20040;-66
2022/08/24 12:19:02;;;;;;;7.72;4.05;;;29.10;79.10;;;;;;5008891;28;20460;-66
2022/08/24 12:21:31;;;;;;;5.47;3.85;;;29.00;79.30;;;;;;5009494;28;20029;-66
2022/08/24 12:24:04;;;;;;;5.20;3.40;;;29.20;80.90;;;;;;5008941;28;20095;-65
2022/08/24 12:26:54;;;;;;;4.65;3.28;;;29.10;76.20;;;;;;5009865;28;20364;-66
2022/08/24 12:29:44;;;;;;;5.05;3.28;;;28.60;78.10;;;;;;5009651;28;20034;-65
2022/08/24 12:32:19;;;;;;;4.47;3.20;;;28.60;78.10;;;;;;5007437;28;20052;-67
2022/08/24 12:35:04;;;;;;;4.65;2.63;;;28.60;77.50;;;;;;5007977;28;20038;-66
2022/08/24 12:37:52;;;;;;;4.20;2.85;;;28.30;76.10;;;;;;5008824;28;20116;-66
2022/08/24 12:40:40;;;;;;;4.60;3.15;;;28.80;77.70;;;;;;5009511;28;20037;-66
2022/08/24 12:43:22;;;;;;;4.13;2.85;;;28.90;75.70;;;;;;5008836;28;20053;-69
2022/08/24 12:45:48;;;;;;;5.53;2.90;;;29.00;75.60;;;;;;4994274;28;20052;-69
2022/08/24 12:48:28;;;;;;;4.38;3.22;;;29.00;74.40;;;;;;5008693;28;20029;-64
2022/08/24 12:51:15;;;;;;;8.18;3.53;;;29.40;75.00;;;;;;5007943;28;20092;-70
2022/08/24 12:53:48;;;;;;;3.45;3.08;;;29.30;74.30;;;;;;4989860;28;20110;-66
2022/08/24 12:56:44;;;;;;;4.05;3.10;;;29.50;73.80;;;;;;4988947;28;20527;-65
2022/08/24 12:59:21;;;;;;;6.28;3.05;;;28.80;73.40;;;;;;4988875;28;20034;-67
2022/08/24 13:02:01;;;;;;;3.28;2.88;;;28.40;73.20;;;;;;4989876;28;20468;-66
2022/08/24 13:04:30;;;;;;;7.88;3.00;;;28.60;74.90;;;;;;4989532;28;20515;-70
2022/08/24 13:07:26;;;;;;;3.58;2.33;;;29.00;77.60;;;;;;4998830;28;20038;-68
2022/08/24 13:09:52;;;;;;;5.78;2.50;;;28.80;71.00;;;;;;5008982;28;20092;-71
2022/08/24 13:12:32;;;;;;;5.18;2.60;;;28.70;72.00;;;;;;5008839;28;20030;-66
2022/08/24 13:15:16;;;;;;;;;;;28.80;74.60;;;;;;5008888;28;20120;-66
2022/08/24 13:17:41;;;;;;;3.60;2.70;;;29.00;73.80;;;;;;4989133;28;19913;-67
2022/08/24 13:20:20;;;;;;;6.55;2.40;;;28.70;74.90;;;;;;4988735;28;20033;-68